This is the latest recevied weather packets stored in our database for station/object VE2BTZ. If no packets are shown the sender has not sent any weather packets the latest 10 day(s).
| Time | Temp. | Humidity | Pressure | Rain* | Wind** | Luminosity | Snow |
|---|---|---|---|---|---|---|---|
| 1778209203 | 7.78° C | 67% | 1008 hPa | 0 mm | - | - | - |
| 1778208003 | 7.78° C | 67% | 1007.9 hPa | 0 mm | - | - | - |
| 1778207103 | 7.78° C | 66% | 1007.9 hPa | 0 mm | - | - | - |
| 1778206803 | 7.78° C | 67% | 1007.9 hPa | 0 mm | - | - | - |
| 1778205603 | 7.78° C | 65% | 1007.9 hPa | 0 mm | - | - | - |
| 1778198704 | 10.56° C | 50% | 1007.3 hPa | 0 mm | - | - | - |
| 1778198404 | 10.56° C | 49% | 1007.2 hPa | 0 mm | - | - | - |
| 1778193903 | 11.67° C | 45% | 1007.1 hPa | 0 mm | - | - | - |
| 1778191503 | 11.11° C | 47% | 1007.1 hPa | 0 mm | - | - | - |
| 1778188203 | 11.11° C | 49% | 1007 hPa | 0 mm | - | - | - |
| 1778187603 | 10.56° C | 49% | 1007 hPa | 0 mm | - | - | - |
| 1778185803 | 10.56° C | 49% | 1006.8 hPa | 0 mm | - | - | - |
| 1778182503 | 11.11° C | 46% | 1006.8 hPa | 0 mm | - | - | - |
| 1778181003 | 10.56° C | 47% | 1007 hPa | 0 mm | - | - | - |
| 1778179803 | 10° C | 49% | 1007 hPa | 0 mm | - | - | - |
| 1778178004 | 10.56° C | 46% | 1006.9 hPa | 0 mm | - | - | - |
| 1778177403 | 11.11° C | 45% | 1006.9 hPa | 0 mm | - | - | - |
| 1778177103 | 11.11° C | 45% | 1006.8 hPa | 0 mm | - | - | - |
| 1778176203 | 10.56° C | 45% | 1006.8 hPa | 0 mm | - | - | - |
| 1778171104 | 10.56° C | 51% | 1007.2 hPa | 0 mm | - | - | - |
| 1778170803 | 10.56° C | 51% | 1007.2 hPa | 0 mm | - | - | - |
| 1778170504 | 10.56° C | 52% | 1007.2 hPa | 0 mm | - | - | - |
| 1778170203 | 10.56° C | 51% | 1007.2 hPa | 0 mm | - | - | - |
| 1778169604 | 10.56° C | 51% | 1007.3 hPa | 0 mm | - | - | - |
| 1778164504 | 9.44° C | 62% | 1007.2 hPa | 0 mm | - | - | - |
* Rain latest hour (hover to see other rain measurements)
** Current wind speed in m/s (hover to see current wind gust speed)